createdAt,value
2019-05-09T00:00:03.986Z,7.70
2019-05-09T00:00:37.913Z,7.70
2019-05-09T00:01:14.155Z,7.70
2019-05-09T00:02:03.190Z,7.70
2019-05-09T00:02:40.084Z,7.70
2019-05-09T00:03:14.270Z,7.70
2019-05-09T00:03:48.381Z,7.80
2019-05-09T00:04:23.159Z,7.70
2019-05-09T00:04:57.464Z,7.70
2019-05-09T00:05:33.466Z,7.70
2019-05-09T00:06:07.479Z,7.70
2019-05-09T00:06:43.091Z,7.70
2019-05-09T00:07:17.470Z,7.70
2019-05-09T00:07:53.182Z,7.70
2019-05-09T00:08:27.516Z,7.70
2019-05-09T00:09:03.589Z,7.70
2019-05-09T00:09:37.465Z,7.70
2019-05-09T00:10:14.079Z,7.70
2019-05-09T00:10:47.725Z,7.70
2019-05-09T00:11:24.435Z,7.70
2019-05-09T00:11:57.805Z,7.70
2019-05-09T00:12:33.565Z,7.60
2019-05-09T00:13:07.980Z,7.60
2019-05-09T00:13:43.455Z,7.60
2019-05-09T00:14:17.803Z,7.60
2019-05-09T00:14:53.977Z,7.60
2019-05-09T00:15:28.010Z,7.60
2019-05-09T00:16:03.663Z,7.50
2019-05-09T00:16:37.979Z,7.60
2019-05-09T00:17:14.089Z,7.60
2019-05-09T00:17:48.304Z,7.60
2019-05-09T00:18:23.284Z,7.60
2019-05-09T00:18:57.616Z,7.60
2019-05-09T00:19:33.342Z,7.60
2019-05-09T00:20:14.536Z,7.60
2019-05-09T00:20:56.280Z,7.50
2019-05-09T00:21:34.882Z,7.50
2019-05-09T00:22:09.110Z,7.50
2019-05-09T00:22:43.618Z,7.50
2019-05-09T00:23:24.694Z,7.40
2019-05-09T00:23:58.915Z,7.40
2019-05-09T00:24:33.328Z,7.40
2019-05-09T00:25:07.864Z,7.40
2019-05-09T00:25:43.291Z,7.40
2019-05-09T00:26:17.945Z,7.40
2019-05-09T00:26:53.335Z,7.40
2019-05-09T00:27:27.555Z,7.40
2019-05-09T00:28:04.053Z,7.40
2019-05-09T00:28:40.654Z,7.40
2019-05-09T00:29:27.143Z,7.40
2019-05-09T00:30:03.724Z,7.40
2019-05-09T00:30:56.341Z,7.40
2019-05-09T00:31:49.580Z,7.50
2019-05-09T00:32:28.989Z,7.50
2019-05-09T00:33:03.780Z,7.50
2019-05-09T00:33:37.988Z,7.50
2019-05-09T00:34:14.680Z,7.50
2019-05-09T00:34:57.393Z,7.50
2019-05-09T00:35:34.993Z,7.50
2019-05-09T00:36:09.157Z,7.50
2019-05-09T00:36:43.855Z,7.50
2019-05-09T00:37:18.053Z,7.50
2019-05-09T00:38:04.543Z,7.50
2019-05-09T00:38:43.326Z,7.50
2019-05-09T00:39:17.109Z,7.50
2019-05-09T00:39:53.325Z,7.50
2019-05-09T00:40:27.445Z,7.50
2019-05-09T00:41:03.719Z,7.50
2019-05-09T00:41:37.514Z,7.60
2019-05-09T00:42:13.711Z,7.50
2019-05-09T00:42:47.602Z,7.60
2019-05-09T00:43:23.763Z,7.60
2019-05-09T00:44:03.691Z,7.60
2019-05-09T00:44:39.613Z,7.60
2019-05-09T00:45:33.445Z,7.60
2019-05-09T00:46:26.882Z,7.60
2019-05-09T00:47:10.150Z,7.60
2019-05-09T00:47:44.443Z,7.60
2019-05-09T00:48:23.053Z,7.60
2019-05-09T00:49:05.102Z,7.60
2019-05-09T00:49:39.446Z,7.60
2019-05-09T00:50:13.682Z,7.70
2019-05-09T00:50:48.055Z,7.60
2019-05-09T00:51:23.278Z,7.70
2019-05-09T00:51:57.867Z,7.70
2019-05-09T00:52:33.917Z,7.70
2019-05-09T00:53:08.149Z,7.70
2019-05-09T00:53:44.268Z,7.70
2019-05-09T00:54:18.210Z,7.70
2019-05-09T00:54:53.203Z,7.70
2019-05-09T00:55:27.626Z,7.70
2019-05-09T00:56:04.229Z,7.70
2019-05-09T00:56:37.938Z,7.70
2019-05-09T00:57:14.283Z,7.70
2019-05-09T00:57:48.527Z,7.80
2019-05-09T00:58:24.134Z,7.80
2019-05-09T00:59:00.511Z,7.80
2019-05-09T00:59:34.805Z,7.80
2019-05-09T01:00:14.620Z,7.80
2019-05-09T01:00:49.085Z,7.80
2019-05-09T01:01:23.965Z,7.80
2019-05-09T01:01:58.501Z,7.80
2019-05-09T01:02:34.025Z,7.90
2019-05-09T01:03:08.497Z,7.90
2019-05-09T01:03:43.361Z,7.80
2019-05-09T01:04:17.648Z,7.90
2019-05-09T01:04:53.143Z,7.80
2019-05-09T01:05:27.420Z,7.90
2019-05-09T01:06:04.203Z,7.90
2019-05-09T01:06:37.705Z,7.90
2019-05-09T01:07:13.924Z,7.80
2019-05-09T01:07:48.162Z,7.80
2019-05-09T01:08:24.177Z,7.90
2019-05-09T01:08:58.683Z,7.80
2019-05-09T01:09:33.514Z,7.80
2019-05-09T01:10:07.938Z,7.80
2019-05-09T01:10:43.640Z,7.80
2019-05-09T01:12:04.646Z,7.80
2019-05-09T01:12:38.925Z,7.90
2019-05-09T01:13:14.227Z,7.90
2019-05-09T01:13:48.484Z,7.90
2019-05-09T01:14:23.596Z,7.90
2019-05-09T01:14:58.250Z,7.90
2019-05-09T01:15:33.458Z,7.90
2019-05-09T01:16:07.756Z,7.90
2019-05-09T01:16:43.954Z,8.00
2019-05-09T01:17:17.913Z,7.90
2019-05-09T01:17:53.640Z,8.00
2019-05-09T01:18:28.079Z,8.00
2019-05-09T01:19:03.597Z,8.00
2019-05-09T01:19:38.020Z,8.00
2019-05-09T01:20:14.571Z,8.00
2019-05-09T01:20:48.670Z,8.00
2019-05-09T01:21:23.984Z,8.00
2019-05-09T01:21:59.144Z,8.00
2019-05-09T01:22:33.380Z,8.10
2019-05-09T01:23:07.666Z,8.10
2019-05-09T01:23:43.588Z,8.10
2019-05-09T01:24:18.091Z,8.10
2019-05-09T01:24:53.398Z,8.10
2019-05-09T01:25:27.818Z,8.10
2019-05-09T01:26:03.818Z,8.10
2019-05-09T01:26:38.168Z,8.20
2019-05-09T01:27:14.184Z,8.20
2019-05-09T01:27:48.487Z,8.20
2019-05-09T01:28:23.309Z,8.20
2019-05-09T01:28:57.629Z,8.20
2019-05-09T01:29:33.761Z,8.20
2019-05-09T01:30:08.277Z,8.20
2019-05-09T01:30:43.863Z,8.20
2019-05-09T01:31:18.335Z,8.20
2019-05-09T01:31:54.166Z,8.20
2019-05-09T01:32:43.350Z,8.20
2019-05-09T01:33:24.471Z,8.20
2019-05-09T01:34:07.747Z,8.20
2019-05-09T01:34:43.694Z,8.20
2019-05-09T01:35:18.189Z,8.20
2019-05-09T01:35:54.065Z,8.20
2019-05-09T01:36:47.527Z,8.20
2019-05-09T01:37:23.728Z,8.20
2019-05-09T01:37:58.118Z,8.30
2019-05-09T01:38:33.981Z,8.20
2019-05-09T01:39:08.069Z,8.20
2019-05-09T01:39:44.063Z,8.20
2019-05-09T01:40:18.249Z,8.20
2019-05-09T01:40:53.272Z,8.20
2019-05-09T01:41:31.006Z,8.20
2019-05-09T01:42:03.589Z,8.20
2019-05-09T01:42:37.861Z,8.20
2019-05-09T01:43:13.884Z,8.20
2019-05-09T01:43:47.735Z,8.20
2019-05-09T01:44:23.830Z,8.20
2019-05-09T01:44:57.585Z,8.20
2019-05-09T01:45:34.072Z,8.20
2019-05-09T01:46:07.730Z,8.30
2019-05-09T01:46:43.592Z,8.20
2019-05-09T01:47:18.014Z,8.30
2019-05-09T01:47:53.787Z,8.30
2019-05-09T01:48:28.845Z,8.30
2019-05-09T01:49:03.323Z,8.30
2019-05-09T01:49:37.495Z,8.30
2019-05-09T01:50:13.990Z,8.30
2019-05-09T01:50:48.187Z,8.40
2019-05-09T01:51:23.352Z,8.30
2019-05-09T01:51:57.790Z,8.40
2019-05-09T01:52:33.768Z,8.40
2019-05-09T01:53:08.133Z,8.40
2019-05-09T01:53:48.212Z,8.40
2019-05-09T01:54:23.759Z,8.40
2019-05-09T01:54:58.220Z,8.40
2019-05-09T01:55:53.829Z,8.40
2019-05-09T01:56:27.399Z,8.40
2019-05-09T01:57:03.270Z,8.40
2019-05-09T01:57:37.925Z,8.40
2019-05-09T01:58:13.858Z,8.40
2019-05-09T01:58:48.210Z,8.40
2019-05-09T01:59:24.311Z,8.40
2019-05-09T01:59:58.685Z,8.40
2019-05-09T02:00:33.247Z,8.40
2019-05-09T02:01:08.892Z,8.40
2019-05-09T02:01:43.559Z,8.40
2019-05-09T02:02:17.934Z,8.40
2019-05-09T02:02:54.049Z,8.40
2019-05-09T02:03:28.614Z,8.50
2019-05-09T02:04:04.095Z,8.50
2019-05-09T02:04:38.523Z,8.50
2019-05-09T02:05:13.570Z,8.50
2019-05-09T02:05:47.789Z,8.50
2019-05-09T02:06:24.212Z,8.50
2019-05-09T02:06:57.992Z,8.50
2019-05-09T02:07:33.205Z,8.50
2019-05-09T02:08:07.933Z,8.50
2019-05-09T02:08:43.799Z,8.50
2019-05-09T02:09:17.869Z,8.50
2019-05-09T02:09:53.974Z,8.50
2019-05-09T02:10:28.255Z,8.60
2019-05-09T02:11:03.833Z,8.60
2019-05-09T02:11:42.534Z,8.60
2019-05-09T02:12:15.194Z,8.60
2019-05-09T02:12:49.415Z,8.60
2019-05-09T02:13:23.891Z,8.60
2019-05-09T02:13:58.190Z,8.60
2019-05-09T02:14:38.950Z,8.60
2019-05-09T02:15:34.075Z,8.60
2019-05-09T02:16:27.441Z,8.60
2019-05-09T02:17:13.977Z,8.60
2019-05-09T02:17:58.906Z,8.60
2019-05-09T02:18:34.856Z,8.60
2019-05-09T02:19:14.173Z,8.70
2019-05-09T02:19:48.578Z,8.70
2019-05-09T02:20:24.190Z,8.70
2019-05-09T02:20:58.496Z,8.60
2019-05-09T02:21:34.532Z,8.70
2019-05-09T02:22:28.000Z,8.60
2019-05-09T02:23:03.677Z,8.60
2019-05-09T02:23:38.494Z,8.70
2019-05-09T02:24:14.049Z,8.70
2019-05-09T02:24:49.872Z,8.70
2019-05-09T02:25:24.322Z,8.70
2019-05-09T02:25:58.715Z,8.60
2019-05-09T02:26:33.458Z,8.70
2019-05-09T02:27:07.851Z,8.70
2019-05-09T02:27:43.665Z,8.70
2019-05-09T02:28:18.116Z,8.70
2019-05-09T02:28:53.838Z,8.70
2019-05-09T02:29:28.350Z,8.70
2019-05-09T02:30:05.851Z,8.70
2019-05-09T02:30:38.780Z,8.70
2019-05-09T02:31:16.154Z,8.70
2019-05-09T02:31:49.004Z,8.70
2019-05-09T02:32:24.162Z,8.70
2019-05-09T02:32:58.613Z,8.70
2019-05-09T02:33:34.698Z,8.70
2019-05-09T02:34:08.722Z,8.70
2019-05-09T02:34:44.265Z,8.70
2019-05-09T02:35:18.735Z,8.70
2019-05-09T02:36:00.877Z,8.70
2019-05-09T02:36:29.646Z,8.70
2019-05-09T02:37:03.936Z,8.70
2019-05-09T02:37:39.124Z,8.70
2019-05-09T02:38:13.546Z,8.70
2019-05-09T02:38:48.637Z,8.70
2019-05-09T02:39:23.435Z,8.70
2019-05-09T02:39:59.182Z,8.70
2019-05-09T02:40:33.631Z,8.70
2019-05-09T02:41:08.863Z,8.70
2019-05-09T02:41:59.645Z,8.70
2019-05-09T02:42:19.741Z,8.70
2019-05-09T02:42:54.143Z,8.70
2019-05-09T02:43:29.215Z,8.70
2019-05-09T02:44:03.703Z,8.70
2019-05-09T02:44:39.487Z,8.70
2019-05-09T02:45:14.256Z,8.70
2019-05-09T02:45:59.399Z,8.70
2019-05-09T02:46:42.097Z,8.70
2019-05-09T02:47:19.599Z,8.70
2019-05-09T02:47:54.801Z,8.70
2019-05-09T02:48:29.382Z,8.70
2019-05-09T02:49:03.876Z,8.70
2019-05-09T02:49:39.187Z,8.70
2019-05-09T02:50:14.237Z,8.70
2019-05-09T02:50:48.801Z,8.70
2019-05-09T02:51:23.680Z,8.70
2019-05-09T02:51:59.228Z,8.70
2019-05-09T02:52:34.133Z,8.70
2019-05-09T02:53:08.477Z,8.70
2019-05-09T02:53:42.628Z,8.70
2019-05-09T02:54:19.049Z,8.70
2019-05-09T02:54:53.197Z,8.70
2019-05-09T02:55:28.833Z,8.70
2019-05-09T02:56:03.039Z,8.70
2019-05-09T02:56:38.577Z,8.70
2019-05-09T02:57:13.064Z,8.70
2019-05-09T02:57:49.017Z,8.70
2019-05-09T02:58:28.113Z,8.70
2019-05-09T02:59:20.563Z,8.70
2019-05-09T03:00:14.233Z,8.70
2019-05-09T03:01:08.434Z,8.70
2019-05-09T03:01:53.766Z,8.70
2019-05-09T03:02:48.748Z,8.70
2019-05-09T03:03:28.828Z,8.70
2019-05-09T03:04:01.949Z,8.70
2019-05-09T03:04:39.097Z,8.70
2019-05-09T03:05:12.296Z,8.70
2019-05-09T03:05:48.736Z,8.70
2019-05-09T03:06:22.798Z,8.70
2019-05-09T03:06:59.817Z,8.60
2019-05-09T03:07:52.020Z,8.70
2019-05-09T03:08:29.363Z,8.60
2019-05-09T03:09:08.945Z,8.60
2019-05-09T03:09:43.344Z,8.60
2019-05-09T03:10:19.201Z,8.60
2019-05-09T03:10:53.924Z,8.60
2019-05-09T03:11:29.083Z,8.60
2019-05-09T03:12:21.124Z,8.60
2019-05-09T03:12:40.052Z,8.50
2019-05-09T03:13:14.620Z,8.50
2019-05-09T03:13:49.741Z,8.50
2019-05-09T03:14:24.122Z,8.50
2019-05-09T03:14:58.823Z,8.50
2019-05-09T03:15:34.728Z,8.50
2019-05-09T03:16:12.593Z,8.40
2019-05-09T03:16:49.134Z,8.40
2019-05-09T03:17:22.963Z,8.40
2019-05-09T03:17:59.811Z,8.40
2019-05-09T03:18:33.579Z,8.40
2019-05-09T03:19:09.137Z,8.40
2019-05-09T03:19:43.698Z,8.40
2019-05-09T03:20:30.764Z,8.40
2019-05-09T03:21:23.955Z,8.40
2019-05-09T03:22:02.146Z,8.30
2019-05-09T03:22:39.449Z,8.30
2019-05-09T03:23:12.624Z,8.30
2019-05-09T03:23:48.896Z,8.30
2019-05-09T03:24:22.830Z,8.30
2019-05-09T03:24:58.918Z,8.30
2019-05-09T03:25:33.878Z,8.30
2019-05-09T03:26:09.757Z,8.30
2019-05-09T03:26:49.402Z,8.30
2019-05-09T03:27:28.900Z,8.30
2019-05-09T03:28:09.832Z,8.30
2019-05-09T03:29:03.285Z,8.20
2019-05-09T03:29:44.528Z,8.20
2019-05-09T03:30:22.306Z,8.20
2019-05-09T03:30:59.247Z,8.20
2019-05-09T03:31:33.331Z,8.20
2019-05-09T03:32:09.144Z,8.20
2019-05-09T03:32:43.641Z,8.20
2019-05-09T03:33:20.109Z,8.20
2019-05-09T03:33:53.856Z,8.10
2019-05-09T03:34:30.141Z,8.10
2019-05-09T03:35:04.814Z,8.10
2019-05-09T03:35:39.057Z,8.10
2019-05-09T03:36:13.222Z,8.10
2019-05-09T03:36:47.704Z,8.10
2019-05-09T03:37:22.280Z,8.10
2019-05-09T03:38:17.851Z,8.00
2019-05-09T03:38:51.444Z,8.10
2019-05-09T03:39:27.598Z,8.10
2019-05-09T03:40:01.661Z,8.00
2019-05-09T03:40:37.737Z,8.00
2019-05-09T03:41:12.232Z,8.00
2019-05-09T03:41:48.761Z,8.00
2019-05-09T03:42:36.459Z,8.00
2019-05-09T03:42:58.461Z,8.00
2019-05-09T03:43:33.197Z,8.00
2019-05-09T03:44:07.431Z,8.00
2019-05-09T03:44:41.719Z,8.00
2019-05-09T03:45:18.323Z,8.00
2019-05-09T03:46:01.506Z,8.00
2019-05-09T03:46:55.058Z,8.00
2019-05-09T03:47:42.160Z,8.00
2019-05-09T03:48:21.470Z,8.00
2019-05-09T03:48:58.149Z,7.90
2019-05-09T03:49:32.204Z,7.90
2019-05-09T03:50:12.910Z,7.90
2019-05-09T03:50:48.705Z,7.90
2019-05-09T03:51:22.983Z,7.90
2019-05-09T03:51:58.488Z,7.90
2019-05-09T03:52:32.725Z,7.90
2019-05-09T03:53:08.418Z,7.90
2019-05-09T03:53:42.973Z,7.90
2019-05-09T03:54:18.402Z,7.90
2019-05-09T03:54:52.747Z,7.80
2019-05-09T03:55:31.470Z,7.80
2019-05-09T03:56:08.025Z,7.80
2019-05-09T03:56:47.813Z,7.80
2019-05-09T03:57:28.600Z,7.70
2019-05-09T03:58:13.187Z,7.70
2019-05-09T03:58:47.563Z,7.70
2019-05-09T03:59:21.764Z,7.70
2019-05-09T03:59:57.280Z,7.60
2019-05-09T04:00:32.141Z,7.60
2019-05-09T04:01:10.366Z,7.60
2019-05-09T04:01:42.277Z,7.60
2019-05-09T04:02:17.841Z,7.50
2019-05-09T04:02:52.302Z,7.50
2019-05-09T04:03:27.668Z,7.50
2019-05-09T04:04:02.042Z,7.50
2019-05-09T04:04:38.252Z,7.50
2019-05-09T04:05:12.223Z,7.50
2019-05-09T04:05:58.438Z,7.50
2019-05-09T04:06:22.104Z,7.50
2019-05-09T04:06:58.079Z,7.40
2019-05-09T04:07:32.362Z,7.40
2019-05-09T04:08:28.058Z,7.40
2019-05-09T04:09:01.854Z,7.40
2019-05-09T04:09:37.463Z,7.40
2019-05-09T04:10:12.072Z,7.40
2019-05-09T04:10:50.267Z,7.40
2019-05-09T04:11:23.918Z,7.40
2019-05-09T04:12:00.297Z,7.40
2019-05-09T04:12:34.768Z,7.40
2019-05-09T04:13:11.138Z,7.50
2019-05-09T04:13:51.775Z,7.40
2019-05-09T04:14:28.183Z,7.40
2019-05-09T04:15:23.405Z,7.40
2019-05-09T04:16:02.543Z,7.40
2019-05-09T04:16:38.078Z,7.40
2019-05-09T04:17:12.936Z,7.40
2019-05-09T04:17:47.617Z,7.40
2019-05-09T04:18:22.007Z,7.30
2019-05-09T04:18:58.124Z,7.30
2019-05-09T04:19:32.552Z,7.40
2019-05-09T04:20:08.191Z,7.30
2019-05-09T04:20:42.555Z,7.40
2019-05-09T04:21:17.566Z,7.30
2019-05-09T04:21:52.013Z,7.30
2019-05-09T04:22:27.176Z,7.40
2019-05-09T04:23:01.461Z,7.40
2019-05-09T04:23:37.697Z,7.40
2019-05-09T04:24:11.662Z,7.40
2019-05-09T04:24:47.418Z,7.40
2019-05-09T04:25:27.437Z,7.40
2019-05-09T04:26:07.612Z,7.40
2019-05-09T04:27:01.162Z,7.40
2019-05-09T04:27:37.426Z,7.40
2019-05-09T04:28:11.395Z,7.40
2019-05-09T04:28:47.235Z,7.40
2019-05-09T04:29:21.556Z,7.40
2019-05-09T04:29:57.449Z,7.50
2019-05-09T04:30:31.791Z,7.50
2019-05-09T04:31:07.394Z,7.50
2019-05-09T04:31:41.714Z,7.50
2019-05-09T04:32:18.135Z,7.50
2019-05-09T04:32:51.947Z,7.50
2019-05-09T04:33:27.974Z,7.50
2019-05-09T04:34:01.923Z,7.50
2019-05-09T04:34:38.081Z,7.50
2019-05-09T04:35:12.099Z,7.50
2019-05-09T04:35:47.586Z,7.60
2019-05-09T04:36:38.535Z,7.60
2019-05-09T04:37:12.586Z,7.60
2019-05-09T04:37:48.299Z,7.60
2019-05-09T04:38:22.750Z,7.60
2019-05-09T04:38:57.828Z,7.60
2019-05-09T04:39:32.074Z,7.60
2019-05-09T04:40:08.286Z,7.60
2019-05-09T04:40:45.009Z,7.60
2019-05-09T04:41:23.639Z,7.60
2019-05-09T04:41:55.110Z,7.60
2019-05-09T04:42:29.929Z,7.60
2019-05-09T04:43:13.973Z,7.60
2019-05-09T04:43:41.623Z,7.60
2019-05-09T04:44:28.413Z,7.60
2019-05-09T04:45:10.498Z,7.60
2019-05-09T04:45:53.255Z,7.60
2019-05-09T04:46:27.730Z,7.60
2019-05-09T04:47:03.568Z,7.60
2019-05-09T04:47:41.428Z,7.60
2019-05-09T04:48:32.897Z,7.60
2019-05-09T04:49:08.198Z,7.70
2019-05-09T04:49:45.267Z,7.70
2019-05-09T04:50:23.519Z,7.70
2019-05-09T04:50:56.693Z,7.70
2019-05-09T04:51:30.504Z,7.70
2019-05-09T04:52:04.662Z,7.70
2019-05-09T04:52:40.005Z,7.70
2019-05-09T04:53:14.314Z,7.70
2019-05-09T04:53:48.447Z,7.60
2019-05-09T04:54:22.611Z,7.70
2019-05-09T04:54:57.598Z,7.70
2019-05-09T04:55:33.560Z,7.70
2019-05-09T04:56:17.532Z,7.70
2019-05-09T04:56:53.851Z,7.70
2019-05-09T04:57:27.922Z,7.70
2019-05-09T04:58:02.276Z,7.70
2019-05-09T04:58:37.653Z,7.80
2019-05-09T04:59:11.915Z,7.80
2019-05-09T04:59:47.571Z,7.80
2019-05-09T05:00:28.272Z,7.80
2019-05-09T05:01:21.645Z,7.80
2019-05-09T05:02:14.798Z,7.80
2019-05-09T05:02:50.426Z,7.80
2019-05-09T05:03:24.733Z,7.80
2019-05-09T05:03:58.877Z,7.80
2019-05-09T05:04:33.246Z,7.80
2019-05-09T05:05:08.173Z,7.80
2019-05-09T05:05:42.370Z,7.80
2019-05-09T05:06:20.310Z,7.80
2019-05-09T05:06:52.612Z,7.80
2019-05-09T05:07:28.679Z,7.80
2019-05-09T05:08:02.752Z,7.90
2019-05-09T05:08:37.575Z,7.90
2019-05-09T05:09:11.751Z,7.90
2019-05-09T05:09:47.780Z,7.80
2019-05-09T05:10:21.719Z,7.90
2019-05-09T05:10:58.084Z,7.80
2019-05-09T05:11:31.775Z,7.90
2019-05-09T05:12:08.202Z,7.90
2019-05-09T05:12:42.121Z,7.90
2019-05-09T05:13:25.717Z,7.90
2019-05-09T05:13:52.140Z,7.90
2019-05-09T05:14:28.138Z,7.90
2019-05-09T05:15:02.286Z,7.90
2019-05-09T05:15:37.767Z,7.90
2019-05-09T05:16:11.957Z,7.90
2019-05-09T05:16:52.363Z,7.90
2019-05-09T05:17:21.961Z,7.90
2019-05-09T05:17:58.110Z,7.90
2019-05-09T05:18:31.901Z,7.90
2019-05-09T05:19:07.507Z,7.90
2019-05-09T05:19:41.806Z,7.90
2019-05-09T05:20:19.648Z,7.90
2019-05-09T05:20:53.905Z,7.90
2019-05-09T05:21:28.655Z,7.90
2019-05-09T05:22:18.286Z,7.90
2019-05-09T05:23:00.617Z,7.90
2019-05-09T05:23:42.072Z,7.90
2019-05-09T05:24:24.366Z,7.90
2019-05-09T05:25:00.871Z,7.90
2019-05-09T05:25:35.232Z,7.90
2019-05-09T05:26:09.528Z,7.80
2019-05-09T05:26:45.245Z,7.80
2019-05-09T05:27:19.376Z,7.80
2019-05-09T05:27:53.423Z,7.80
2019-05-09T05:28:27.906Z,7.80
2019-05-09T05:29:02.460Z,7.80
2019-05-09T05:29:38.315Z,7.70
2019-05-09T05:30:13.172Z,7.70
2019-05-09T05:30:47.762Z,7.80
2019-05-09T05:31:22.104Z,7.70
2019-05-09T05:31:58.060Z,7.70
2019-05-09T05:32:38.694Z,7.70
2019-05-09T05:33:32.004Z,7.70
2019-05-09T05:34:13.713Z,7.70
2019-05-09T05:35:07.665Z,7.60
2019-05-09T05:35:44.568Z,7.60
2019-05-09T05:36:18.936Z,7.60
2019-05-09T05:36:53.162Z,7.60
2019-05-09T05:37:28.078Z,7.60
2019-05-09T05:38:02.547Z,7.50
2019-05-09T05:38:37.708Z,7.50
2019-05-09T05:39:12.184Z,7.50
2019-05-09T05:39:47.740Z,7.50
2019-05-09T05:40:22.112Z,7.50
2019-05-09T05:40:57.855Z,7.50
2019-05-09T05:41:32.255Z,7.50
2019-05-09T05:42:08.307Z,7.50
2019-05-09T05:42:42.896Z,7.50
2019-05-09T05:43:17.528Z,7.50
2019-05-09T05:43:51.762Z,7.50
2019-05-09T05:44:28.127Z,7.50
2019-05-09T05:45:02.003Z,7.50
2019-05-09T05:45:43.305Z,7.50
2019-05-09T05:46:37.977Z,7.50
2019-05-09T05:47:18.682Z,7.50
2019-05-09T05:47:57.643Z,7.50
2019-05-09T05:48:32.297Z,7.50
2019-05-09T05:49:08.040Z,7.50
2019-05-09T05:49:42.443Z,7.50
2019-05-09T05:50:17.626Z,7.50
2019-05-09T05:50:52.089Z,7.50
2019-05-09T05:51:27.688Z,7.50
2019-05-09T05:52:02.188Z,7.50
2019-05-09T05:52:37.552Z,7.50
2019-05-09T05:53:11.947Z,7.50
2019-05-09T05:53:47.965Z,7.50
2019-05-09T05:54:22.608Z,7.50
2019-05-09T05:54:58.223Z,7.50
2019-05-09T05:55:32.661Z,7.40
2019-05-09T05:56:08.505Z,7.50
2019-05-09T05:56:42.912Z,7.50
2019-05-09T05:57:17.744Z,7.50
2019-05-09T05:57:51.985Z,7.50
2019-05-09T05:58:28.161Z,7.50
2019-05-09T05:59:02.138Z,7.50
2019-05-09T05:59:40.403Z,7.50
2019-05-09T06:00:13.886Z,7.50
2019-05-09T06:00:48.157Z,7.50
2019-05-09T06:01:22.367Z,7.60
2019-05-09T06:01:58.338Z,7.60
2019-05-09T06:02:32.623Z,7.60
2019-05-09T06:03:08.793Z,7.60
2019-05-09T06:03:42.752Z,7.60
2019-05-09T06:04:18.546Z,7.60
2019-05-09T06:04:52.837Z,7.70
2019-05-09T06:05:27.813Z,7.70
2019-05-09T06:06:02.388Z,7.70
2019-05-09T06:06:37.478Z,7.80
2019-05-09T06:07:11.765Z,7.80
2019-05-09T06:07:48.194Z,7.80
2019-05-09T06:08:21.893Z,7.80
2019-05-09T06:08:57.943Z,7.80
2019-05-09T06:09:32.155Z,7.90
2019-05-09T06:10:08.272Z,7.80
2019-05-09T06:10:42.586Z,7.90
2019-05-09T06:11:17.718Z,7.80
2019-05-09T06:11:52.182Z,7.90
2019-05-09T06:12:27.617Z,7.90
2019-05-09T06:13:01.967Z,8.00
2019-05-09T06:13:37.938Z,8.00
2019-05-09T06:14:12.113Z,8.00
2019-05-09T06:14:48.051Z,8.00
2019-05-09T06:15:22.306Z,8.00
2019-05-09T06:15:58.672Z,8.00
2019-05-09T06:16:32.500Z,8.10
2019-05-09T06:17:08.061Z,8.10
2019-05-09T06:17:42.561Z,8.10
2019-05-09T06:18:18.427Z,8.10
2019-05-09T06:18:52.887Z,8.00
2019-05-09T06:19:28.678Z,8.10
2019-05-09T06:20:03.369Z,8.00
2019-05-09T06:20:38.627Z,8.10
2019-05-09T06:21:12.856Z,8.10
2019-05-09T06:21:48.490Z,8.10
2019-05-09T06:22:23.220Z,8.00
2019-05-09T06:22:58.352Z,8.10
2019-05-09T06:23:32.615Z,8.10
2019-05-09T06:24:08.584Z,8.10
2019-05-09T06:24:42.678Z,8.10
2019-05-09T06:25:20.639Z,8.10
2019-05-09T06:25:53.243Z,8.10
2019-05-09T06:26:29.172Z,8.10
2019-05-09T06:27:06.571Z,8.10
2019-05-09T06:27:42.210Z,8.10
2019-05-09T06:28:14.938Z,8.10
2019-05-09T06:28:49.265Z,8.10
2019-05-09T06:29:23.568Z,8.10
2019-05-09T06:29:58.299Z,8.20
2019-05-09T06:30:32.870Z,8.20
2019-05-09T06:31:07.669Z,8.20
2019-05-09T06:31:42.993Z,8.20
2019-05-09T06:32:18.793Z,8.20
2019-05-09T06:32:53.207Z,8.20
2019-05-09T06:33:28.623Z,8.30
2019-05-09T06:34:03.235Z,8.30
2019-05-09T06:34:41.814Z,8.30
2019-05-09T06:35:17.589Z,8.30
2019-05-09T06:35:51.786Z,8.40
2019-05-09T06:36:28.363Z,8.40
2019-05-09T06:37:03.213Z,8.40
2019-05-09T06:37:38.319Z,8.40
2019-05-09T06:38:12.742Z,8.40
2019-05-09T06:38:48.775Z,8.40
2019-05-09T06:39:22.924Z,8.40
2019-05-09T06:39:58.286Z,8.40
2019-05-09T06:40:32.771Z,8.40
2019-05-09T06:41:08.825Z,8.40
2019-05-09T06:41:43.127Z,8.40
2019-05-09T06:42:18.308Z,8.30
2019-05-09T06:42:53.454Z,8.30
2019-05-09T06:43:29.835Z,8.30
2019-05-09T06:44:23.314Z,8.30
2019-05-09T06:45:17.985Z,8.30
2019-05-09T06:46:14.469Z,8.30
2019-05-09T06:46:53.682Z,8.40
2019-05-09T06:47:33.717Z,8.30
2019-05-09T06:48:08.019Z,8.30
2019-05-09T06:48:42.432Z,8.30
2019-05-09T06:49:27.940Z,8.30
2019-05-09T06:49:58.097Z,8.30
2019-05-09T06:50:32.307Z,8.30
2019-05-09T06:51:07.348Z,8.30
2019-05-09T06:51:41.886Z,8.30
2019-05-09T06:52:17.482Z,8.20
2019-05-09T06:52:52.279Z,8.30
2019-05-09T06:53:27.273Z,8.30
2019-05-09T06:54:01.719Z,8.30
2019-05-09T06:54:35.915Z,8.20
2019-05-09T06:55:10.446Z,8.30
2019-05-09T06:55:44.606Z,8.20
2019-05-09T06:56:18.831Z,8.30
2019-05-09T06:56:52.972Z,8.30
2019-05-09T06:57:28.135Z,8.30
2019-05-09T06:58:21.639Z,8.30
2019-05-09T06:58:58.025Z,8.30
2019-05-09T06:59:31.962Z,8.30
2019-05-09T07:00:13.312Z,8.20
2019-05-09T07:00:51.872Z,8.20
2019-05-09T07:01:37.598Z,8.30
2019-05-09T07:02:19.844Z,8.30
2019-05-09T07:03:01.960Z,8.30
2019-05-09T07:03:37.492Z,8.30
2019-05-09T07:04:21.244Z,8.30
2019-05-09T07:05:03.016Z,8.30
2019-05-09T07:05:57.580Z,8.30
2019-05-09T07:06:38.071Z,8.30
2019-05-09T07:07:19.894Z,8.40
2019-05-09T07:08:13.216Z,8.40
2019-05-09T07:08:52.228Z,8.40
2019-05-09T07:09:41.355Z,8.40
2019-05-09T07:10:17.699Z,8.40
2019-05-09T07:10:51.661Z,8.40
2019-05-09T07:11:27.573Z,8.40
2019-05-09T07:12:02.417Z,8.40
2019-05-09T07:12:37.954Z,8.40
2019-05-09T07:13:12.335Z,8.50
2019-05-09T07:13:47.239Z,8.40
2019-05-09T07:14:32.447Z,8.40
2019-05-09T07:15:04.868Z,8.40
2019-05-09T07:15:39.176Z,8.50
2019-05-09T07:16:13.265Z,8.40
2019-05-09T07:16:47.893Z,8.40
2019-05-09T07:17:22.137Z,8.40
2019-05-09T07:17:57.545Z,8.40
2019-05-09T07:18:31.974Z,8.40
2019-05-09T07:19:07.993Z,8.40
2019-05-09T07:19:43.875Z,8.40
2019-05-09T07:20:18.571Z,8.40
2019-05-09T07:20:52.896Z,8.40
2019-05-09T07:21:48.360Z,8.40
2019-05-09T07:22:29.294Z,8.40
2019-05-09T07:23:03.354Z,8.40
2019-05-09T07:23:37.645Z,8.30
2019-05-09T07:24:11.941Z,8.30
2019-05-09T07:25:09.774Z,8.40
2019-05-09T07:26:00.291Z,8.40
2019-05-09T07:26:37.216Z,8.40
2019-05-09T07:27:10.796Z,8.40
2019-05-09T07:27:45.359Z,8.40
2019-05-09T07:28:19.688Z,8.40
2019-05-09T07:28:53.746Z,8.40
2019-05-09T07:29:29.585Z,8.50
2019-05-09T07:30:10.522Z,8.50
2019-05-09T07:31:03.616Z,8.50
2019-05-09T07:31:45.233Z,8.50
2019-05-09T07:32:19.630Z,8.60
2019-05-09T07:32:59.927Z,8.60
2019-05-09T07:33:42.620Z,8.70
2019-05-09T07:34:20.956Z,8.70
2019-05-09T07:35:00.073Z,8.70
2019-05-09T07:35:34.216Z,8.80
2019-05-09T07:36:08.689Z,8.80
2019-05-09T07:36:43.045Z,8.80
2019-05-09T07:37:18.575Z,8.80
2019-05-09T07:37:52.996Z,8.80
2019-05-09T07:38:31.384Z,8.80
2019-05-09T07:39:08.838Z,8.90
2019-05-09T07:39:43.381Z,8.90
2019-05-09T07:40:18.286Z,9.00
2019-05-09T07:40:52.486Z,9.00
2019-05-09T07:41:28.215Z,9.00
2019-05-09T07:42:02.548Z,9.00
2019-05-09T07:42:39.097Z,9.00
2019-05-09T07:43:13.484Z,9.00
2019-05-09T07:43:47.939Z,9.00
2019-05-09T07:44:22.275Z,9.00
2019-05-09T07:44:58.914Z,9.00
2019-05-09T07:45:32.526Z,9.00
2019-05-09T07:46:28.296Z,9.10
2019-05-09T07:47:07.335Z,9.10
2019-05-09T07:47:41.135Z,9.20
2019-05-09T07:48:15.226Z,9.20
2019-05-09T07:48:49.694Z,9.30
2019-05-09T07:49:23.943Z,9.30
2019-05-09T07:49:58.626Z,9.30
2019-05-09T07:50:32.937Z,9.30
2019-05-09T07:51:07.851Z,9.40
2019-05-09T07:51:42.350Z,9.30
2019-05-09T07:52:18.574Z,9.30
2019-05-09T07:52:52.526Z,9.30
2019-05-09T07:53:28.400Z,9.40
2019-05-09T07:54:20.095Z,9.40
2019-05-09T07:54:38.534Z,9.40
2019-05-09T07:55:12.974Z,9.30
2019-05-09T07:55:50.228Z,9.40
2019-05-09T07:56:24.480Z,9.40
2019-05-09T07:56:58.861Z,9.40
2019-05-09T07:57:33.357Z,9.40
2019-05-09T07:58:08.259Z,9.30
2019-05-09T07:58:42.666Z,9.30
2019-05-09T07:59:18.090Z,9.30
2019-05-09T07:59:52.487Z,9.40
2019-05-09T08:00:33.125Z,9.40
2019-05-09T08:01:08.594Z,9.40
2019-05-09T08:01:43.432Z,9.50
2019-05-09T08:02:17.755Z,9.60
2019-05-09T08:02:52.162Z,9.60
2019-05-09T08:03:27.527Z,9.60
2019-05-09T08:04:01.999Z,9.60
2019-05-09T08:04:38.403Z,9.60
2019-05-09T08:05:16.864Z,9.60
2019-05-09T08:05:51.541Z,9.70
2019-05-09T08:06:28.470Z,9.70
2019-05-09T08:07:01.583Z,9.70
2019-05-09T08:07:37.887Z,9.70
2019-05-09T08:08:18.614Z,9.70
2019-05-09T08:08:52.426Z,9.70